Time;durP1;ratioP1;P1;durP2;ratioP2;P2;SDS_P1;SDS_P2;PMS_P1;PMS_P2;Temp;Humidity;BMP_temperature;BMP_pressure;BME280_temperature;BME280_humidity;BME280_pressure;Samples;Min_cycle;Max_cycle;Signal;HPM_P1;HPM_P2
2024/01/09 00:01:04;;;;;;;3.72;2.80;;;16.40;36.10;;;;;;5149685;27;45422;-68
2024/01/09 00:03:31;;;;;;;3.60;2.67;;;16.40;36.10;;;;;;5149592;27;45540;-68
2024/01/09 00:05:58;;;;;;;3.63;2.65;;;16.40;36.20;;;;;;5149553;27;45410;-67
2024/01/09 00:08:26;;;;;;;3.60;2.80;;;16.40;36.20;;;;;;5150056;27;45242;-68
2024/01/09 00:10:53;;;;;;;3.40;2.75;;;16.40;36.30;;;;;;5150236;27;45330;-67
2024/01/09 00:13:20;;;;;;;3.20;2.40;;;16.30;36.20;;;;;;5149409;27;46436;-67
2024/01/09 00:15:47;;;;;;;3.28;2.78;;;16.30;36.20;;;;;;5148633;27;45495;-68
2024/01/09 00:18:13;;;;;;;4.03;3.17;;;16.40;36.80;;;;;;5149755;27;45268;-68
2024/01/09 00:20:40;;;;;;;3.80;2.30;;;16.40;36.10;;;;;;5150189;27;45596;-70
2024/01/09 00:23:07;;;;;;;3.45;2.70;;;16.40;36.10;;;;;;5149647;27;47310;-68
2024/01/09 00:25:35;;;;;;;3.55;2.75;;;16.40;36.70;;;;;;5149553;27;45595;-68
2024/01/09 00:28:02;;;;;;;3.33;2.60;;;16.40;36.10;;;;;;5149621;27;45353;-69
2024/01/09 00:30:29;;;;;;;2.53;2.25;;;16.40;36.10;;;;;;5149968;27;45231;-68
2024/01/09 00:32:56;;;;;;;3.03;2.60;;;16.30;36.10;;;;;;5149123;27;46574;-69
2024/01/09 00:35:23;;;;;;;3.42;2.63;;;16.30;36.10;;;;;;5149004;27;45380;-68
2024/01/09 00:37:49;;;;;;;4.72;2.90;;;16.30;36.10;;;;;;5149373;27;45488;-68
2024/01/09 00:40:16;;;;;;;2.80;2.38;;;16.40;36.10;;;;;;5148865;27;45315;-68
2024/01/09 00:42:45;;;;;;;3.83;2.75;;;16.30;36.00;;;;;;5148796;27;46400;-68
2024/01/09 00:45:12;;;;;;;3.70;2.80;;;16.40;36.00;;;;;;5148872;27;45262;-68
2024/01/09 00:47:38;;;;;;;3.17;2.70;;;16.30;36.60;;;;;;5148674;27;45308;-68
2024/01/09 00:50:06;;;;;;;4.30;2.80;;;16.30;35.90;;;;;;5149202;27;45419;-68
2024/01/09 00:52:33;;;;;;;3.53;2.58;;;16.30;36.00;;;;;;5146618;27;45388;-68
2024/01/09 00:55:00;;;;;;;3.05;2.58;;;16.30;36.00;;;;;;5149151;27;45316;-69
2024/01/09 00:57:25;;;;;;;2.78;2.53;;;16.30;36.00;;;;;;5148070;27;45301;-69
2024/01/09 00:59:54;;;;;;;4.25;2.72;;;16.30;35.90;;;;;;5149193;27;45319;-69
2024/01/09 01:02:21;;;;;;;3.40;2.80;;;16.30;35.90;;;;;;5148963;27;46373;-69
2024/01/09 01:04:48;;;;;;;2.97;2.42;;;16.30;35.90;;;;;;5148884;27;45402;-69
2024/01/09 01:07:14;;;;;;;2.97;2.58;;;16.30;35.90;;;;;;5149022;27;45338;-69
2024/01/09 01:09:41;;;;;;;3.35;2.63;;;16.30;35.90;;;;;;5149322;27;45298;-69
2024/01/09 01:12:08;;;;;;;4.30;2.67;;;16.30;36.10;;;;;;5148819;27;46445;-69
2024/01/09 01:14:35;;;;;;;3.45;2.53;;;16.20;35.90;;;;;;5148843;27;45279;-69
2024/01/09 01:17:03;;;;;;;4.30;2.92;;;16.20;35.90;;;;;;5149109;27;45386;-69
2024/01/09 01:19:30;;;;;;;4.13;3.03;;;16.20;35.90;;;;;;5148679;27;45346;-69
2024/01/09 01:21:57;;;;;;;4.28;2.47;;;16.20;35.90;;;;;;5148281;27;45303;-69
2024/01/09 01:24:23;;;;;;;3.00;2.65;;;16.20;35.90;;;;;;5127439;27;45282;-69
2024/01/09 01:26:50;;;;;;;3.42;2.70;;;16.20;35.90;;;;;;5127449;27;45384;-69
2024/01/09 01:29:17;;;;;;;3.50;2.80;;;16.20;35.90;;;;;;5127890;27;45364;-70
2024/01/09 01:31:45;;;;;;;3.33;2.60;;;16.20;35.90;;;;;;5127164;27;46376;-69
2024/01/09 01:34:13;;;;;;;4.65;3.00;;;16.20;35.90;;;;;;5127280;27;45197;-69
2024/01/09 01:36:40;;;;;;;3.85;2.72;;;16.20;35.90;;;;;;5127348;27;45396;-70
2024/01/09 01:39:07;;;;;;;3.13;2.83;;;16.20;36.00;;;;;;5127313;27;45397;-69
2024/01/09 01:41:34;;;;;;;4.88;3.53;;;16.20;36.00;;;;;;5126532;27;45250;-69
2024/01/09 01:44:01;;;;;;;3.20;2.90;;;16.20;35.90;;;;;;5127524;27;45318;-69
2024/01/09 01:46:29;;;;;;;2.70;2.50;;;16.20;35.90;;;;;;5127619;27;45324;-69
2024/01/09 01:48:56;;;;;;;4.20;3.15;;;16.20;35.90;;;;;;5139827;27;45456;-69
2024/01/09 01:51:24;;;;;;;4.30;3.65;;;16.20;35.90;;;;;;5148525;27;45428;-69
2024/01/09 01:53:51;;;;;;;3.35;2.72;;;16.20;35.90;;;;;;5148748;27;45254;-69
2024/01/09 01:56:18;;;;;;;3.22;2.88;;;16.10;35.90;;;;;;5148426;27;45279;-69
2024/01/09 01:58:45;;;;;;;3.55;2.65;;;16.10;35.90;;;;;;5146022;27;45293;-69
2024/01/09 02:01:11;;;;;;;3.33;2.83;;;16.10;35.90;;;;;;5150720;27;46349;-69
2024/01/09 02:03:38;;;;;;;3.78;2.75;;;16.10;35.90;;;;;;5152056;27;45373;-69
2024/01/09 02:06:05;;;;;;;4.05;3.47;;;16.10;35.80;;;;;;5152090;27;45393;-69
2024/01/09 02:08:33;;;;;;;3.55;2.85;;;16.10;35.80;;;;;;5152172;27;45235;-69
2024/01/09 02:11:00;;;;;;;3.65;3.08;;;16.10;35.80;;;;;;5151477;27;45505;-70
2024/01/09 02:13:27;;;;;;;3.50;3.00;;;16.10;35.80;;;;;;5151383;27;45510;-69
2024/01/09 02:15:54;;;;;;;3.35;2.70;;;16.10;35.90;;;;;;5151631;27;45404;-69
2024/01/09 02:18:21;;;;;;;2.85;2.40;;;16.10;35.90;;;;;;5151692;27;45353;-69
2024/01/09 02:20:47;;;;;;;2.85;2.53;;;16.10;35.90;;;;;;5151344;27;46343;-69
2024/01/09 02:23:14;;;;;;;3.60;3.30;;;16.10;35.90;;;;;;5150686;27;45311;-69
2024/01/09 02:25:43;;;;;;;3.55;3.25;;;16.10;35.90;;;;;;5151585;27;45320;-69
2024/01/09 02:28:12;;;;;;;3.58;3.25;;;16.10;35.90;;;;;;5151995;27;45308;-69
2024/01/09 02:30:40;;;;;;;4.70;3.50;;;16.00;35.80;;;;;;5151542;27;46931;-69
2024/01/09 02:33:08;;;;;;;4.20;3.30;;;16.10;35.90;;;;;;5151420;27;45476;-69
2024/01/09 02:35:40;;;;;;;3.92;3.38;;;16.00;35.80;;;;;;5151456;27;45309;-69
2024/01/09 02:38:07;;;;;;;3.20;2.72;;;16.00;35.80;;;;;;5151371;27;45372;-69
2024/01/09 02:40:33;;;;;;;3.10;2.78;;;16.00;35.80;;;;;;5150974;27;46666;-69
2024/01/09 02:43:00;;;;;;;3.35;2.70;;;16.00;35.90;;;;;;5151264;27;45327;-69
2024/01/09 02:45:27;;;;;;;3.45;3.03;;;16.00;35.80;;;;;;5151313;27;45377;-69
2024/01/09 02:47:55;;;;;;;4.45;2.92;;;16.00;35.80;;;;;;5151263;27;45403;-69
2024/01/09 02:50:22;;;;;;;4.53;2.40;;;16.00;35.70;;;;;;5151121;27;45620;-69
2024/01/09 02:52:49;;;;;;;3.53;2.80;;;16.00;35.70;;;;;;5150986;27;45348;-69
2024/01/09 02:55:16;;;;;;;4.78;3.15;;;16.00;35.70;;;;;;5150343;27;45310;-69
2024/01/09 02:57:42;;;;;;;3.47;2.92;;;16.00;35.70;;;;;;5150710;27;45263;-69
2024/01/09 03:00:09;;;;;;;3.95;3.15;;;16.00;35.70;;;;;;5150306;27;46383;-70
2024/01/09 03:02:36;;;;;;;3.67;2.80;;;16.00;35.70;;;;;;5150228;27;45328;-70
2024/01/09 03:05:06;;;;;;;3.50;2.70;;;16.00;35.70;;;;;;5150422;27;45508;-69
2024/01/09 03:07:33;;;;;;;3.50;2.90;;;15.90;35.60;;;;;;5150516;27;45300;-69
2024/01/09 03:10:00;;;;;;;2.60;2.22;;;15.90;35.60;;;;;;5149988;27;45220;-69
2024/01/09 03:12:27;;;;;;;3.65;3.33;;;16.00;35.60;;;;;;5150203;27;45388;-69
2024/01/09 03:14:55;;;;;;;4.32;2.80;;;16.00;35.60;;;;;;5150306;27;45385;-69
2024/01/09 03:17:22;;;;;;;3.72;3.25;;;15.90;35.60;;;;;;5150499;27;45336;-69
2024/01/09 03:19:48;;;;;;;3.55;2.80;;;15.90;35.60;;;;;;5150132;27;46381;-69
2024/01/09 03:22:17;;;;;;;4.18;2.78;;;15.90;35.60;;;;;;5150215;27;45311;-69
2024/01/09 03:24:43;;;;;;;3.15;2.80;;;15.90;35.60;;;;;;5150163;27;45290;-69
2024/01/09 03:27:10;;;;;;;3.95;3.00;;;15.90;35.60;;;;;;5150266;27;45381;-69
2024/01/09 03:29:37;;;;;;;3.50;2.80;;;15.90;35.60;;;;;;5150107;27;45403;-69
2024/01/09 03:32:04;;;;;;;3.20;2.65;;;15.90;35.60;;;;;;5149935;27;45260;-69
2024/01/09 03:34:31;;;;;;;4.22;3.45;;;15.90;35.60;;;;;;5150161;27;45251;-69
2024/01/09 03:36:58;;;;;;;5.93;3.30;;;15.90;35.60;;;;;;5150192;27;45575;-69
2024/01/09 03:39:26;;;;;;;4.82;2.90;;;15.90;35.60;;;;;;5149608;27;45359;-69
2024/01/09 03:41:53;;;;;;;3.88;3.47;;;15.80;35.50;;;;;;5149591;27;45363;-69
2024/01/09 03:44:20;;;;;;;3.83;3.25;;;15.80;35.50;;;;;;5150001;27;45159;-69
2024/01/09 03:46:47;;;;;;;3.53;2.83;;;15.80;35.60;;;;;;5150228;27;45324;-70
2024/01/09 03:49:13;;;;;;;3.90;3.10;;;15.80;35.60;;;;;;5149264;27;45367;-69
2024/01/09 03:51:40;;;;;;;3.53;2.80;;;15.80;36.20;;;;;;5149801;27;45322;-69
2024/01/09 03:54:07;;;;;;;4.03;3.65;;;15.80;35.50;;;;;;5149756;27;45333;-69
2024/01/09 03:56:35;;;;;;;3.85;3.38;;;15.80;35.50;;;;;;5149946;27;45234;-69
2024/01/09 03:59:02;;;;;;;4.55;3.55;;;15.80;35.50;;;;;;5149282;27;45318;-69
2024/01/09 04:01:29;;;;;;;4.40;3.75;;;15.80;35.50;;;;;;5149326;27;45310;-69
2024/01/09 04:03:56;;;;;;;3.45;3.15;;;15.80;35.50;;;;;;5149934;27;45326;-69
2024/01/09 04:06:23;;;;;;;4.72;3.67;;;15.70;35.50;;;;;;5149918;27;45412;-69
2024/01/09 04:08:50;;;;;;;3.58;3.22;;;15.80;35.60;;;;;;5149190;27;46294;-70
2024/01/09 04:11:17;;;;;;;3.97;3.53;;;15.80;35.50;;;;;;5149263;27;45253;-69
2024/01/09 04:13:45;;;;;;;5.00;3.78;;;15.80;35.50;;;;;;5149465;27;45307;-69
2024/01/09 04:16:14;;;;;;;5.60;4.03;;;15.80;35.40;;;;;;5149462;27;44775;-69
2024/01/09 04:18:40;;;;;;;4.00;3.55;;;15.90;35.30;;;;;;5149090;27;46462;-69
2024/01/09 04:21:07;;;;;;;5.55;3.80;;;15.90;35.20;;;;;;5149217;27;45323;-70
2024/01/09 04:23:34;;;;;;;3.97;3.10;;;16.00;35.10;;;;;;5148476;27;45317;-69
2024/01/09 04:26:01;;;;;;;3.65;2.88;;;16.10;35.00;;;;;;5149350;27;45491;-70
2024/01/09 04:28:28;;;;;;;3.95;3.33;;;16.20;34.70;;;;;;5148944;27;45435;-69
2024/01/09 04:30:56;;;;;;;4.38;3.88;;;16.30;34.60;;;;;;5149069;27;45259;-69
2024/01/09 04:33:23;;;;;;;4.63;3.20;;;16.40;34.40;;;;;;5148889;27;45316;-69
2024/01/09 04:35:51;;;;;;;5.47;2.78;;;16.50;34.20;;;;;;5148922;27;45297;-69
2024/01/09 04:38:17;;;;;;;3.83;2.85;;;16.60;34.00;;;;;;5148545;27;45495;-69
2024/01/09 04:40:44;;;;;;;3.72;3.15;;;16.70;33.80;;;;;;5148805;27;45460;-69
2024/01/09 04:43:11;;;;;;;4.15;3.42;;;16.80;33.70;;;;;;5148942;27;45341;-69
2024/01/09 04:45:38;;;;;;;3.42;2.58;;;16.90;33.60;;;;;;5149157;27;45342;-69
2024/01/09 04:48:07;;;;;;;4.10;2.90;;;17.00;34.00;;;;;;5148617;27;46558;-69
2024/01/09 04:50:34;;;;;;;3.58;2.67;;;17.00;33.20;;;;;;5148652;27;45257;-69
2024/01/09 04:53:01;;;;;;;4.57;2.90;;;17.10;33.20;;;;;;5148671;27;45304;-69
2024/01/09 04:55:28;;;;;;;3.88;2.55;;;17.20;33.10;;;;;;5148996;27;45418;-69
2024/01/09 04:57:54;;;;;;;3.20;2.90;;;17.20;33.00;;;;;;5148336;27;45380;-69
2024/01/09 05:00:22;;;;;;;2.95;2.70;;;17.30;33.00;;;;;;5148411;27;45296;-69
2024/01/09 05:02:49;;;;;;;4.25;2.88;;;17.30;32.90;;;;;;5148847;27;45381;-69
2024/01/09 05:05:17;;;;;;;3.00;2.63;;;17.30;32.80;;;;;;5148651;27;45251;-69
2024/01/09 05:07:44;;;;;;;3.55;2.60;;;17.40;32.80;;;;;;5148337;27;46450;-69
2024/01/09 05:10:10;;;;;;;3.58;2.78;;;17.40;32.70;;;;;;5148505;27;45348;-69
2024/01/09 05:12:37;;;;;;;4.45;3.40;;;17.50;32.60;;;;;;5148450;27;45331;-69
2024/01/09 05:15:05;;;;;;;4.53;3.00;;;17.50;32.60;;;;;;5148785;27;45358;-69
2024/01/09 05:17:32;;;;;;;3.85;3.25;;;17.50;32.50;;;;;;5147879;27;46382;-69
2024/01/09 05:19:59;;;;;;;3.72;2.85;;;17.50;32.50;;;;;;5148201;27;45313;-69
2024/01/09 05:22:27;;;;;;;3.78;3.00;;;17.60;32.40;;;;;;5148222;27;45262;-69
2024/01/09 05:24:54;;;;;;;3.08;2.78;;;17.60;32.40;;;;;;5148501;27;45377;-69
2024/01/09 05:27:21;;;;;;;5.55;3.17;;;17.70;32.40;;;;;;5148171;27;46465;-69
2024/01/09 05:29:47;;;;;;;3.42;2.92;;;17.70;32.30;;;;;;5147979;27;45313;-69
2024/01/09 05:32:14;;;;;;;3.03;2.67;;;17.70;32.30;;;;;;5148141;27;45401;-69
2024/01/09 05:34:41;;;;;;;3.80;3.13;;;17.70;32.20;;;;;;5148539;27;45417;-69
2024/01/09 05:37:08;;;;;;;4.25;2.78;;;17.70;32.20;;;;;;5151525;27;45345;-69
2024/01/09 05:39:36;;;;;;;3.38;3.00;;;17.80;32.20;;;;;;5151628;27;45319;-70
2024/01/09 05:42:03;;;;;;;3.92;3.08;;;17.80;32.20;;;;;;5151588;27;45345;-69
2024/01/09 05:44:30;;;;;;;3.15;2.80;;;17.80;32.10;;;;;;5151923;27;45431;-69
2024/01/09 05:46:57;;;;;;;5.20;2.83;;;17.80;32.10;;;;;;5151545;27;46528;-69
2024/01/09 05:49:24;;;;;;;2.92;2.60;;;17.80;32.10;;;;;;5151800;27;45366;-69
2024/01/09 05:51:50;;;;;;;3.35;2.78;;;17.80;32.10;;;;;;5151697;27;45251;-68
2024/01/09 05:54:17;;;;;;;3.00;2.65;;;17.80;32.10;;;;;;5151772;27;45406;-69
2024/01/09 05:56:45;;;;;;;4.28;3.15;;;17.90;32.10;;;;;;5151300;27;46396;-69
2024/01/09 05:59:12;;;;;;;3.92;3.00;;;17.90;32.00;;;;;;5151097;27;45356;-69
2024/01/09 06:01:39;;;;;;;3.17;2.88;;;17.90;32.00;;;;;;5151486;27;45297;-68
2024/01/09 06:04:06;;;;;;;4.93;2.97;;;17.90;32.00;;;;;;5151557;27;45444;-69
2024/01/09 06:06:33;;;;;;;2.97;2.70;;;17.90;32.00;;;;;;5151399;27;46266;-69
2024/01/09 06:08:59;;;;;;;4.97;3.03;;;17.90;31.90;;;;;;5151407;27;45514;-69
2024/01/09 06:11:27;;;;;;;4.03;2.85;;;18.00;31.90;;;;;;5151553;27;45312;-69
2024/01/09 06:13:56;;;;;;;4.68;3.00;;;17.90;31.80;;;;;;5151577;27;45650;-69
2024/01/09 06:16:23;;;;;;;4.00;2.83;;;17.90;31.80;;;;;;5150971;27;46378;-69
2024/01/09 06:18:50;;;;;;;5.07;2.53;;;18.00;31.80;;;;;;5151070;27;45377;-69
2024/01/09 06:21:17;;;;;;;3.50;2.72;;;18.00;31.80;;;;;;5151278;27;45238;-69
2024/01/09 06:23:43;;;;;;;4.60;3.00;;;18.00;31.80;;;;;;5151322;27;45327;-69
2024/01/09 06:26:10;;;;;;;4.90;3.15;;;18.00;31.80;;;;;;5151128;27;46890;-70
2024/01/09 06:28:37;;;;;;;4.32;3.35;;;18.00;31.80;;;;;;5150885;27;45332;-70
2024/01/09 06:31:05;;;;;;;3.50;2.80;;;18.00;31.80;;;;;;5151233;27;45263;-69
2024/01/09 06:33:32;;;;;;;3.58;3.05;;;17.90;31.80;;;;;;5151192;27;45468;-69
2024/01/09 06:36:00;;;;;;;5.95;2.92;;;18.00;31.80;;;;;;5150832;27;45311;-70
2024/01/09 06:38:27;;;;;;;3.85;2.92;;;18.00;31.80;;;;;;5150638;27;45259;-69
2024/01/09 06:40:54;;;;;;;5.90;3.20;;;18.00;31.80;;;;;;5150839;27;45348;-69
2024/01/09 06:43:21;;;;;;;3.78;2.92;;;18.00;31.80;;;;;;5150807;27;45399;-69
2024/01/09 06:45:47;;;;;;;4.07;3.10;;;18.00;32.10;;;;;;5150701;27;46163;-69
2024/01/09 06:48:16;;;;;;;5.25;2.88;;;18.00;31.80;;;;;;5150700;27;45381;-69
2024/01/09 06:50:43;;;;;;;5.07;2.70;;;18.00;31.80;;;;;;5148205;27;45251;-70
2024/01/09 06:53:10;;;;;;;3.92;2.78;;;18.00;31.90;;;;;;5151042;27;45392;-69
2024/01/09 06:55:37;;;;;;;3.60;3.05;;;18.00;31.90;;;;;;5150521;27;45280;-69
2024/01/09 06:58:04;;;;;;;4.20;3.08;;;18.00;32.00;;;;;;5150802;27;45543;-70
2024/01/09 07:00:30;;;;;;;4.93;2.97;;;18.00;31.80;;;;;;5150603;27;45355;-70
2024/01/09 07:02:57;;;;;;;3.38;2.78;;;18.00;31.80;;;;;;5150811;27;45250;-70
2024/01/09 07:05:26;;;;;;;5.72;3.17;;;18.00;31.80;;;;;;5149145;27;46472;-69
2024/01/09 07:07:53;;;;;;;4.95;2.88;;;18.00;31.80;;;;;;5144200;27;45545;-68
2024/01/09 07:10:19;;;;;;;7.63;3.22;;;18.00;32.00;;;;;;5150245;27;45361;-69
2024/01/09 07:12:46;;;;;;;5.35;3.08;;;18.00;32.00;;;;;;5150150;27;45418;-70
2024/01/09 07:15:14;;;;;;;4.63;2.83;;;18.10;32.00;;;;;;5157132;27;46483;-69
2024/01/09 07:17:41;;;;;;;5.97;3.08;;;18.10;32.10;;;;;;5150509;27;45345;-70
2024/01/09 07:20:08;;;;;;;6.22;3.05;;;18.20;32.10;;;;;;5140898;27;45672;-69
2024/01/09 07:22:37;;;;;;;3.67;2.75;;;18.20;32.10;;;;;;5150223;27;45267;-68
2024/01/09 07:25:04;;;;;;;3.63;2.70;;;18.10;32.70;;;;;;5151127;27;46317;-70
2024/01/09 07:27:31;;;;;;;4.75;3.30;;;18.10;32.10;;;;;;5137439;27;45286;-67
2024/01/09 07:29:57;;;;;;;3.75;2.83;;;18.20;32.10;;;;;;5143825;27;45301;-68
2024/01/09 07:32:25;;;;;;;4.78;3.20;;;18.10;32.10;;;;;;5147296;27;45724;-68
2024/01/09 07:34:52;;;;;;;4.63;2.95;;;18.20;32.20;;;;;;5153150;27;46646;-69
2024/01/09 07:37:20;;;;;;;3.42;3.00;;;18.20;32.30;;;;;;5144558;27;45351;-68
2024/01/09 07:39:48;;;;;;;6.00;3.10;;;18.20;32.20;;;;;;5148145;27;45579;-67
2024/01/09 07:42:15;;;;;;;3.88;2.97;;;18.20;32.30;;;;;;5149752;27;45301;-70
2024/01/09 07:44:42;;;;;;;4.75;2.83;;;18.20;32.30;;;;;;5145430;27;45449;-71
2024/01/09 07:47:11;;;;;;;5.25;3.17;;;18.20;32.30;;;;;;5149829;27;45263;-71
2024/01/09 07:49:37;;;;;;;5.32;3.05;;;18.20;32.40;;;;;;5149842;27;45504;-69
2024/01/09 07:52:05;;;;;;;4.90;2.50;;;18.20;32.40;;;;;;5145538;27;45481;-70
2024/01/09 07:54:32;;;;;;;4.82;3.55;;;18.20;32.40;;;;;;5143801;27;45531;-71
2024/01/09 07:57:00;;;;;;;4.60;3.22;;;18.10;32.40;;;;;;5138145;27;45431;-70
2024/01/09 07:59:27;;;;;;;4.38;2.85;;;18.10;32.40;;;;;;5147276;27;45424;-69
2024/01/09 08:01:55;;;;;;;5.25;2.80;;;18.10;32.40;;;;;;5147139;27;45323;-69
2024/01/09 08:04:25;;;;;;;3.67;3.00;;;18.10;32.40;;;;;;5140064;27;45377;-70
2024/01/09 08:06:52;;;;;;;5.53;3.42;;;18.10;32.50;;;;;;5145659;27;45437;-69
2024/01/09 08:09:19;;;;;;;4.80;2.58;;;18.10;32.60;;;;;;5147439;27;45481;-69
2024/01/09 08:11:46;;;;;;;4.65;3.03;;;18.10;32.70;;;;;;5149153;27;45301;-69
2024/01/09 08:14:14;;;;;;;5.20;3.30;;;18.10;32.80;;;;;;5145209;27;45517;-68
2024/01/09 08:16:41;;;;;;;5.63;3.60;;;18.00;32.80;;;;;;5145267;27;45517;-69
2024/01/09 08:19:08;;;;;;;6.30;3.60;;;18.00;32.60;;;;;;5147845;27;45485;-69
2024/01/09 08:21:35;;;;;;;3.88;3.03;;;18.00;32.70;;;;;;5144400;27;45379;-69
2024/01/09 08:24:02;;;;;;;3.70;3.00;;;18.00;33.00;;;;;;5147359;27;46391;-68
2024/01/09 08:26:29;;;;;;;5.50;3.75;;;18.00;33.00;;;;;;5148066;27;45309;-69
2024/01/09 08:28:55;;;;;;;4.38;3.33;;;18.00;33.00;;;;;;5147577;27;45467;-69
2024/01/09 08:31:23;;;;;;;9.65;3.45;;;18.00;33.00;;;;;;5140270;27;45536;-67
2024/01/09 08:33:50;;;;;;;4.57;3.00;;;18.10;33.20;;;;;;5136875;27;45653;-70
2024/01/09 08:36:17;;;;;;;5.85;3.47;;;18.20;33.40;;;;;;5144960;27;45491;-70
2024/01/09 08:38:44;;;;;;;5.50;3.05;;;18.30;33.10;;;;;;5143801;27;45349;-70
2024/01/09 08:41:11;;;;;;;5.72;3.60;;;18.40;32.90;;;;;;5143333;27;45310;-69
2024/01/09 08:43:38;;;;;;;5.82;3.55;;;18.50;32.40;;;;;;5144112;27;45403;-69
2024/01/09 08:46:06;;;;;;;3.95;3.17;;;18.70;32.40;;;;;;5145110;27;45406;-70
2024/01/09 08:48:34;;;;;;;5.88;3.63;;;18.70;32.20;;;;;;5142322;27;45554;-68
2024/01/09 08:51:01;;;;;;;7.75;4.07;;;18.70;32.20;;;;;;5138443;27;45611;-69
2024/01/09 08:53:29;;;;;;;5.78;3.50;;;18.80;32.20;;;;;;5147395;27;45385;-69
2024/01/09 08:55:56;;;;;;;18.05;4.13;;;18.80;32.10;;;;;;5143112;27;45500;-70
2024/01/09 08:58:26;;;;;;;6.75;4.13;;;18.90;31.80;;;;;;5148930;27;45344;-67
2024/01/09 09:00:52;;;;;;;5.72;4.15;;;18.90;31.90;;;;;;5140527;27;45639;-69
2024/01/09 09:03:19;;;;;;;9.02;4.13;;;18.90;32.20;;;;;;5144757;27;45574;-69
2024/01/09 09:05:48;;;;;;;5.38;3.58;;;18.90;31.50;;;;;;5143421;27;45447;-69
2024/01/09 09:08:14;;;;;;;4.43;3.38;;;19.00;31.80;;;;;;5145269;27;45427;-68
2024/01/09 09:10:41;;;;;;;6.25;3.42;;;19.10;31.70;;;;;;5144463;27;45652;-67
2024/01/09 09:13:09;;;;;;;8.38;3.92;;;19.10;31.70;;;;;;5143694;27;45538;-68
2024/01/09 09:15:36;;;;;;;7.88;3.70;;;19.10;31.60;;;;;;5146553;27;45388;-68
2024/01/09 09:18:03;;;;;;;4.78;3.70;;;19.20;31.60;;;;;;5147257;27;45470;-68
2024/01/09 09:20:30;;;;;;;7.20;3.80;;;19.20;31.60;;;;;;5147079;27;45174;-66
2024/01/09 09:22:58;;;;;;;6.63;3.58;;;19.30;31.70;;;;;;5142402;27;46573;-68
2024/01/09 09:25:25;;;;;;;6.25;4.32;;;19.30;31.60;;;;;;5134552;27;45598;-69
2024/01/09 09:27:52;;;;;;;6.13;3.97;;;19.30;31.50;;;;;;5146868;27;45491;-68
2024/01/09 09:30:19;;;;;;;10.15;3.95;;;19.30;31.50;;;;;;5144826;27;45531;-66
2024/01/09 09:32:45;;;;;;;11.63;3.38;;;19.40;31.50;;;;;;5143767;27;45390;-71
2024/01/09 09:35:17;;;;;;;5.13;3.53;;;19.50;31.80;;;;;;5136263;27;45528;-69
2024/01/09 09:37:45;;;;;;;10.77;3.75;;;19.50;31.80;;;;;;5133717;27;45344;-69
2024/01/09 09:40:13;;;;;;;5.00;3.50;;;19.50;31.80;;;;;;5144738;27;45860;-70
2024/01/09 09:42:40;;;;;;;4.85;3.30;;;19.60;31.70;;;;;;5139573;27;45490;-70
2024/01/09 09:45:10;;;;;;;8.43;3.78;;;19.60;31.40;;;;;;5140425;27;45503;-71
2024/01/09 09:47:37;;;;;;;5.47;3.83;;;19.70;32.30;;;;;;5142842;27;45750;-70
2024/01/09 09:50:04;;;;;;;4.28;3.30;;;19.80;31.10;;;;;;5144695;27;45456;-74
2024/01/09 09:52:31;;;;;;;4.35;3.85;;;19.80;31.30;;;;;;5146616;27;46682;-69
2024/01/09 09:54:58;;;;;;;5.30;3.88;;;19.80;31.20;;;;;;5147158;27;45413;-69
2024/01/09 09:57:27;;;;;;;5.40;4.25;;;19.90;31.60;;;;;;5147434;27;45413;-69
2024/01/09 09:59:54;;;;;;;5.35;3.55;;;19.90;30.80;;;;;;5146976;27;45577;-68
2024/01/09 10:02:24;;;;;;;8.18;4.00;;;19.80;30.80;;;;;;5137594;27;46665;-68
2024/01/09 10:04:52;;;;;;;5.43;4.20;;;19.90;31.10;;;;;;5145295;27;45345;-74
2024/01/09 10:07:21;;;;;;;5.90;4.15;;;20.00;31.00;;;;;;5131192;27;45510;-75
2024/01/09 10:09:51;;;;;;;5.10;3.80;;;20.00;30.80;;;;;;5137355;27;45444;-69
2024/01/09 10:12:19;;;;;;;8.40;3.80;;;20.00;30.80;;;;;;5145468;27;45417;-69
2024/01/09 10:15:07;;;;;;;4.40;3.85;;;20.10;30.90;;;;;;5143397;27;45519;-68
2024/01/09 10:17:34;;;;;;;7.10;3.90;;;20.10;30.60;;;;;;5140630;27;45717;-68
2024/01/09 10:20:02;;;;;;;5.60;4.10;;;20.10;30.60;;;;;;5140161;27;45487;-68
2024/01/09 10:22:31;;;;;;;8.07;4.03;;;20.10;30.60;;;;;;5148417;27;46953;-69
2024/01/09 10:24:58;;;;;;;7.95;3.80;;;20.10;30.70;;;;;;5149670;27;45324;-69
2024/01/09 10:27:25;;;;;;;5.35;3.80;;;20.10;30.70;;;;;;5148674;27;45813;-69
2024/01/09 10:29:52;;;;;;;5.00;3.90;;;20.10;30.70;;;;;;5149181;27;45455;-69
2024/01/09 10:32:20;;;;;;;5.75;3.90;;;20.20;30.70;;;;;;5148715;27;46487;-68
2024/01/09 10:34:47;;;;;;;5.47;3.65;;;20.20;30.70;;;;;;5145496;27;45516;-67
2024/01/09 10:37:14;;;;;;;6.38;4.35;;;20.20;30.60;;;;;;5148841;27;45448;-69
2024/01/09 10:39:42;;;;;;;6.07;3.80;;;20.20;30.70;;;;;;5150894;27;45392;-66
2024/01/09 10:42:10;;;;;;;9.65;4.47;;;20.30;31.20;;;;;;5150415;27;46375;-73
2024/01/09 10:44:39;;;;;;;6.05;4.38;;;20.30;30.60;;;;;;5149262;27;45381;-67
2024/01/09 10:47:06;;;;;;;6.72;4.40;;;20.30;30.20;;;;;;5148494;27;45434;-73
2024/01/09 10:49:34;;;;;;;6.93;4.18;;;20.30;30.60;;;;;;5149188;27;45534;-73
2024/01/09 10:52:01;;;;;;;10.07;4.00;;;20.30;30.50;;;;;;5142763;27;45498;-70
2024/01/09 10:54:28;;;;;;;6.18;3.85;;;20.30;30.50;;;;;;5142881;27;45545;-69
2024/01/09 10:56:54;;;;;;;7.55;4.53;;;20.40;30.60;;;;;;5138526;27;45206;-70
2024/01/09 10:59:21;;;;;;;7.40;4.13;;;20.40;30.50;;;;;;5148809;27;45439;-72
2024/01/09 11:01:48;;;;;;;5.97;4.38;;;20.40;30.70;;;;;;5139189;27;47712;-72
2024/01/09 11:04:20;;;;;;;6.22;4.28;;;20.50;30.70;;;;;;5139283;27;45603;-70
2024/01/09 11:06:49;;;;;;;9.93;4.40;;;20.50;31.00;;;;;;5150382;27;45321;-74
2024/01/09 11:09:16;;;;;;;12.02;4.10;;;20.50;30.40;;;;;;5148586;27;45478;-77
2024/01/09 11:11:43;;;;;;;4.90;3.70;;;20.50;30.00;;;;;;5140444;27;45473;-69
2024/01/09 11:14:10;;;;;;;5.60;4.00;;;20.50;30.10;;;;;;5149441;27;45296;-69
2024/01/09 11:16:37;;;;;;;6.13;4.13;;;20.50;30.10;;;;;;5149599;27;45438;-67
2024/01/09 11:19:04;;;;;;;5.25;4.00;;;20.50;30.50;;;;;;5150256;27;45355;-68
2024/01/09 11:21:31;;;;;;;6.50;3.97;;;20.50;30.00;;;;;;5148969;27;46312;-70
2024/01/09 11:24:00;;;;;;;7.40;4.30;;;20.50;29.90;;;;;;5148129;27;45304;-69
2024/01/09 11:26:29;;;;;;;5.65;4.13;;;20.50;29.60;;;;;;5148412;27;45289;-72
2024/01/09 11:28:57;;;;;;;6.47;4.25;;;20.50;30.00;;;;;;5149003;27;45492;-68
2024/01/09 11:31:24;;;;;;;8.20;4.13;;;20.50;30.30;;;;;;5141083;27;46512;-71
2024/01/09 11:33:51;;;;;;;6.95;4.47;;;20.50;30.00;;;;;;5147766;27;45347;-71
2024/01/09 11:36:24;;;;;;;7.10;4.10;;;20.50;30.00;;;;;;5145464;27;45488;-70
2024/01/09 11:38:52;;;;;;;6.45;4.30;;;20.50;30.00;;;;;;5143765;27;45471;-69
2024/01/09 11:41:21;;;;;;;5.90;4.05;;;20.50;30.00;;;;;;5146571;27;46309;-70
2024/01/09 11:44:03;;;;;;;6.43;4.03;;;20.50;30.10;;;;;;5136678;27;45389;-70
2024/01/09 11:46:33;;;;;;;7.00;3.83;;;20.50;30.10;;;;;;5142885;27;45440;-70
2024/01/09 11:49:00;;;;;;;6.20;3.72;;;20.50;30.10;;;;;;5144439;27;45370;-72
2024/01/09 11:51:28;;;;;;;7.72;3.80;;;20.50;30.20;;;;;;5147782;27;46374;-72
2024/01/09 11:53:56;;;;;;;4.03;3.40;;;20.50;30.20;;;;;;5148026;27;45495;-70
2024/01/09 11:56:25;;;;;;;7.38;3.58;;;20.50;30.20;;;;;;5144322;27;45472;-68
2024/01/09 11:58:52;;;;;;;7.68;3.65;;;20.50;30.00;;;;;;5146340;27;45478;-68
2024/01/09 12:01:19;;;;;;;3.83;3.35;;;20.50;30.00;;;;;;5138743;27;45489;-71
2024/01/09 12:03:53;;;;;;;7.53;3.60;;;20.50;30.10;;;;;;5144270;27;45266;-71
2024/01/09 12:06:20;;;;;;;4.13;3.45;;;20.50;30.20;;;;;;5143301;27;45250;-70
2024/01/09 12:08:47;;;;;;;6.40;3.70;;;20.50;30.10;;;;;;5146144;27;45519;-72
2024/01/09 12:11:14;;;;;;;6.57;3.90;;;20.60;30.10;;;;;;5146612;27;47534;-70
2024/01/09 12:13:42;;;;;;;8.27;4.07;;;20.60;30.20;;;;;;5144531;27;45535;-69
2024/01/09 12:16:17;;;;;;;9.90;3.65;;;20.60;30.30;;;;;;5147878;27;45407;-71
2024/01/09 12:18:48;;;;;;;9.02;3.65;;;20.60;30.10;;;;;;5139254;27;45765;-71
2024/01/09 12:21:15;;;;;;;8.65;4.05;;;20.60;30.00;;;;;;5139335;27;46371;-69
2024/01/09 12:23:42;;;;;;;5.75;3.50;;;20.60;30.30;;;;;;5141381;27;45380;-71
2024/01/09 12:26:09;;;;;;;12.05;3.85;;;20.60;30.60;;;;;;5139502;27;45510;-70
2024/01/09 12:28:36;;;;;;;5.80;3.60;;;20.60;30.70;;;;;;5147288;27;45642;-69
2024/01/09 12:31:06;;;;;;;7.50;3.45;;;20.60;30.20;;;;;;5147921;27;46357;-70
2024/01/09 12:33:33;;;;;;;7.75;3.67;;;20.60;30.20;;;;;;5149264;27;45333;-71
2024/01/09 12:36:00;;;;;;;4.95;3.58;;;20.60;30.00;;;;;;5148505;27;45322;-71
2024/01/09 12:38:27;;;;;;;8.93;3.85;;;20.50;30.00;;;;;;5148677;27;45324;-70
2024/01/09 12:40:58;;;;;;;5.85;3.65;;;20.50;30.00;;;;;;5144821;27;46104;-71
2024/01/09 12:43:25;;;;;;;6.00;3.70;;;20.50;30.10;;;;;;5148137;27;45324;-71
2024/01/09 12:45:52;;;;;;;5.28;3.53;;;20.50;30.20;;;;;;5148346;27;45347;-71